Tzoanna Vi — SYHY — position and weather

sailwx.info

Track history (hours):
 
Tides and Currents Weather Stations Pressure Air Temp Water Temp Dewpoint Dewpoint Depression Visibility Wind Speed Wind Dir Waves Ship Positions

Tzoanna Vi

Last reported at 2016-Dec-06 07:32 UTC. Time now 2016-Dec-07 16:25 UTC.
Position N 38°08' E 024°05'.

Length 84 m; draft 5.3 m.

Type: Cargo ship. MMSI: 237991700.

Date/timePositionNaut miles runAvg speedWind from/ knotsBaromVisibWave heightAir tempDewpointWater temp
2016-Dec-06 07:32N 38°08' E 024°05'8 8.5
2016-Dec-06 06:33N 37°59' E 024°06'8 8.4
2016-Dec-06 05:33N 37°51' E 024°06'8 8.1
2016-Dec-06 04:33N 37°43' E 024°06'9 7.4
2016-Dec-06 03:19N 37°38' E 023°56'7 8.7
2016-Dec-06 02:31N 37°39' E 023°47'8 8.1
2016-Dec-06 01:33N 37°44' E 023°40'8 8.1
2016-Dec-06 00:33N 37°49' E 023°32'9 8.9
2016-Dec-05 23:33N 37°51' E 023°21'9 9.1
2016-Dec-05 22:33N 37°53' E 023°09'30 0.8
2016-Dec-04 07:30N 38°07' E 022°36'11 9.5
2016-Dec-04 06:22N 38°02' E 022°48'12 6.2
2016-Dec-04 04:27N 37°55' E 023°00'1 0.9
2016-Dec-04 03:33N 37°55' E 023°01'0 0.0
2016-Dec-04 02:33N 37°55' E 023°01'0 0.0
2016-Dec-04 01:33N 37°55' E 023°01'5 4.7
2016-Dec-04 00:33N 37°53' E 023°07'9 8.7
2016-Dec-03 23:33N 37°52' E 023°18'8 8.5
2016-Dec-03 22:34N 37°50' E 023°28'8 8.3
2016-Dec-03 21:34N 37°50' E 023°39'8 8.3
2016-Dec-03 20:33N 37°43' E 023°44'8 7.8
2016-Dec-03 19:33N 37°39' E 023°53'9 8.9
2016-Dec-03 18:31N 37°38' E 024°04'8 8.6
2016-Dec-03 17:33N 37°42' E 024°13'9 9.1
2016-Dec-03 16:33N 37°48' E 024°22'9 9.0
2016-Dec-03 15:33N 37°54' E 024°30'  
2016-Nov-26 22:07N 37°57' E 024°33'4 7.8
2016-Nov-26 21:33N 37°55' E 024°28'9 8.8
2016-Nov-26 20:33N 37°57' E 024°17'8 7.5
2016-Nov-26 19:33N 38°01' E 024°09'8 8.0
2016-Nov-26 18:33N 38°09' E 024°06'  
Track history (hours):
 
Tides and Currents Weather Stations Pressure Air Temp Water Temp Dewpoint Dewpoint Depression Visibility Wind Speed Wind Dir Waves Ship Positions

Tzoanna Vi

Last reported at 2016-Dec-06 07:32 UTC. Time now 2016-Dec-07 16:25 UTC.
Position N 38°08' E 024°05'.

Length 84 m; draft 5.3 m.

Type: Cargo ship. MMSI: 237991700.

Date/timePositionNaut miles runAvg speedWind from/ knotsBaromVisibWave heightAir tempDewpointWater temp
2016-Dec-06 07:32N 38°08' E 024°05'8 8.5
2016-Dec-06 06:33N 37°59' E 024°06'8 8.4
2016-Dec-06 05:33N 37°51' E 024°06'8 8.1
2016-Dec-06 04:33N 37°43' E 024°06'9 7.4
2016-Dec-06 03:19N 37°38' E 023°56'7 8.7
2016-Dec-06 02:31N 37°39' E 023°47'8 8.1
2016-Dec-06 01:33N 37°44' E 023°40'8 8.1
2016-Dec-06 00:33N 37°49' E 023°32'9 8.9
2016-Dec-05 23:33N 37°51' E 023°21'9 9.1
2016-Dec-05 22:33N 37°53' E 023°09'30 0.8
2016-Dec-04 07:30N 38°07' E 022°36'11 9.5
2016-Dec-04 06:22N 38°02' E 022°48'12 6.2
2016-Dec-04 04:27N 37°55' E 023°00'1 0.9
2016-Dec-04 03:33N 37°55' E 023°01'0 0.0
2016-Dec-04 02:33N 37°55' E 023°01'0 0.0
2016-Dec-04 01:33N 37°55' E 023°01'5 4.7
2016-Dec-04 00:33N 37°53' E 023°07'9 8.7
2016-Dec-03 23:33N 37°52' E 023°18'8 8.5
2016-Dec-03 22:34N 37°50' E 023°28'8 8.3
2016-Dec-03 21:34N 37°50' E 023°39'8 8.3
2016-Dec-03 20:33N 37°43' E 023°44'8 7.8
2016-Dec-03 19:33N 37°39' E 023°53'9 8.9
2016-Dec-03 18:31N 37°38' E 024°04'8 8.6
2016-Dec-03 17:33N 37°42' E 024°13'9 9.1
2016-Dec-03 16:33N 37°48' E 024°22'9 9.0
2016-Dec-03 15:33N 37°54' E 024°30'  
2016-Nov-26 22:07N 37°57' E 024°33'4 7.8
2016-Nov-26 21:33N 37°55' E 024°28'9 8.8
2016-Nov-26 20:33N 37°57' E 024°17'8 7.5
2016-Nov-26 19:33N 38°01' E 024°09'8 8.0
2016-Nov-26 18:33N 38°09' E 024°06'  

Dump ship's entire track history